sensor_id;sensor_type;location;lat;lon;timestamp;P1;durP1;ratioP1;P2;durP2;ratioP2
22705;SDS011;11520;51.198;4.468;2023-04-03T00:01:50;10.77;;;7.68;;
22705;SDS011;11520;51.198;4.468;2023-04-03T00:04:16;12.07;;;8.30;;
22705;SDS011;11520;51.198;4.468;2023-04-03T00:06:43;10.43;;;7.60;;
22705;SDS011;11520;51.198;4.468;2023-04-03T00:09:09;13.57;;;7.60;;
22705;SDS011;11520;51.198;4.468;2023-04-03T00:11:35;13.13;;;7.95;;
22705;SDS011;11520;51.198;4.468;2023-04-03T00:14:01;13.18;;;7.82;;
22705;SDS011;11520;51.198;4.468;2023-04-03T00:16:27;10.63;;;8.07;;
22705;SDS011;11520;51.198;4.468;2023-04-03T00:18:53;12.02;;;7.45;;
22705;SDS011;11520;51.198;4.468;2023-04-03T00:21:18;12.82;;;8.48;;
22705;SDS011;11520;51.198;4.468;2023-04-03T00:23:45;12.82;;;8.43;;
22705;SDS011;11520;51.198;4.468;2023-04-03T00:26:15;13.05;;;7.97;;
22705;SDS011;11520;51.198;4.468;2023-04-03T00:28:41;11.82;;;8.35;;
22705;SDS011;11520;51.198;4.468;2023-04-03T00:31:09;13.23;;;8.43;;
22705;SDS011;11520;51.198;4.468;2023-04-03T00:33:35;13.98;;;7.70;;
22705;SDS011;11520;51.198;4.468;2023-04-03T00:36:05;13.90;;;7.90;;
22705;SDS011;11520;51.198;4.468;2023-04-03T00:38:33;13.75;;;8.50;;
22705;SDS011;11520;51.198;4.468;2023-04-03T00:40:58;15.60;;;8.15;;
22705;SDS011;11520;51.198;4.468;2023-04-03T00:43:26;14.02;;;7.88;;
22705;SDS011;11520;51.198;4.468;2023-04-03T00:45:54;14.23;;;7.35;;
22705;SDS011;11520;51.198;4.468;2023-04-03T00:50:58;12.73;;;7.88;;
22705;SDS011;11520;51.198;4.468;2023-04-03T00:53:32;13.10;;;7.68;;
22705;SDS011;11520;51.198;4.468;2023-04-03T00:56:08;11.10;;;8.27;;
22705;SDS011;11520;51.198;4.468;2023-04-03T00:58:38;12.00;;;8.45;;
22705;SDS011;11520;51.198;4.468;2023-04-03T01:01:08;11.50;;;7.72;;
22705;SDS011;11520;51.198;4.468;2023-04-03T01:03:40;11.43;;;8.07;;
22705;SDS011;11520;51.198;4.468;2023-04-03T01:06:06;9.18;;;7.10;;
22705;SDS011;11520;51.198;4.468;2023-04-03T01:08:33;9.60;;;7.28;;
22705;SDS011;11520;51.198;4.468;2023-04-03T01:11:00;10.02;;;7.20;;
22705;SDS011;11520;51.198;4.468;2023-04-03T01:13:30;13.23;;;7.88;;
22705;SDS011;11520;51.198;4.468;2023-04-03T01:15:59;13.93;;;7.85;;
22705;SDS011;11520;51.198;4.468;2023-04-03T01:18:26;11.23;;;7.80;;
22705;SDS011;11520;51.198;4.468;2023-04-03T01:23:26;10.65;;;7.65;;
22705;SDS011;11520;51.198;4.468;2023-04-03T01:25:58;9.90;;;7.07;;
22705;SDS011;11520;51.198;4.468;2023-04-03T01:28:26;12.10;;;7.20;;
22705;SDS011;11520;51.198;4.468;2023-04-03T01:31:22;13.85;;;8.15;;
22705;SDS011;11520;51.198;4.468;2023-04-03T01:33:56;11.40;;;7.82;;
22705;SDS011;11520;51.198;4.468;2023-04-03T01:36:25;11.93;;;7.38;;
22705;SDS011;11520;51.198;4.468;2023-04-03T01:38:53;10.48;;;7.20;;
22705;SDS011;11520;51.198;4.468;2023-04-03T01:41:21;10.95;;;7.50;;
22705;SDS011;11520;51.198;4.468;2023-04-03T01:43:48;11.55;;;7.50;;
22705;SDS011;11520;51.198;4.468;2023-04-03T01:46:14;12.57;;;7.63;;
22705;SDS011;11520;51.198;4.468;2023-04-03T01:48:41;10.93;;;7.60;;
22705;SDS011;11520;51.198;4.468;2023-04-03T01:51:08;12.75;;;8.20;;
22705;SDS011;11520;51.198;4.468;2023-04-03T01:53:34;10.15;;;8.02;;
22705;SDS011;11520;51.198;4.468;2023-04-03T01:56:02;8.18;;;6.82;;
22705;SDS011;11520;51.198;4.468;2023-04-03T01:58:29;14.05;;;8.30;;
22705;SDS011;11520;51.198;4.468;2023-04-03T02:00:55;12.52;;;8.30;;
22705;SDS011;11520;51.198;4.468;2023-04-03T02:03:21;11.75;;;7.97;;
22705;SDS011;11520;51.198;4.468;2023-04-03T02:05:49;12.05;;;7.65;;
22705;SDS011;11520;51.198;4.468;2023-04-03T02:08:15;12.75;;;8.00;;
22705;SDS011;11520;51.198;4.468;2023-04-03T02:10:51;9.88;;;7.97;;
22705;SDS011;11520;51.198;4.468;2023-04-03T02:13:17;13.75;;;8.90;;
22705;SDS011;11520;51.198;4.468;2023-04-03T02:15:43;10.45;;;7.68;;
22705;SDS011;11520;51.198;4.468;2023-04-03T02:18:10;10.05;;;7.72;;
22705;SDS011;11520;51.198;4.468;2023-04-03T02:20:37;12.45;;;8.45;;
22705;SDS011;11520;51.198;4.468;2023-04-03T02:23:03;12.68;;;7.85;;
22705;SDS011;11520;51.198;4.468;2023-04-03T02:27:59;11.55;;;7.55;;
22705;SDS011;11520;51.198;4.468;2023-04-03T02:30:25;11.98;;;8.45;;
22705;SDS011;11520;51.198;4.468;2023-04-03T02:32:51;10.55;;;8.30;;
22705;SDS011;11520;51.198;4.468;2023-04-03T02:35:16;12.52;;;7.90;;
22705;SDS011;11520;51.198;4.468;2023-04-03T02:37:42;13.95;;;8.73;;
22705;SDS011;11520;51.198;4.468;2023-04-03T02:40:09;12.07;;;8.55;;
22705;SDS011;11520;51.198;4.468;2023-04-03T02:42:36;13.63;;;7.78;;
22705;SDS011;11520;51.198;4.468;2023-04-03T02:45:03;11.48;;;8.50;;
22705;SDS011;11520;51.198;4.468;2023-04-03T02:47:29;11.23;;;7.95;;
22705;SDS011;11520;51.198;4.468;2023-04-03T02:49:55;13.30;;;8.57;;
22705;SDS011;11520;51.198;4.468;2023-04-03T02:52:24;14.10;;;8.48;;
22705;SDS011;11520;51.198;4.468;2023-04-03T02:54:49;12.02;;;7.60;;
22705;SDS011;11520;51.198;4.468;2023-04-03T02:57:15;15.30;;;8.40;;
22705;SDS011;11520;51.198;4.468;2023-04-03T02:59:41;12.07;;;8.65;;
22705;SDS011;11520;51.198;4.468;2023-04-03T03:02:08;12.88;;;8.50;;
22705;SDS011;11520;51.198;4.468;2023-04-03T03:04:34;11.35;;;8.43;;
22705;SDS011;11520;51.198;4.468;2023-04-03T03:07:01;12.13;;;8.10;;
22705;SDS011;11520;51.198;4.468;2023-04-03T03:09:27;10.00;;;8.10;;
22705;SDS011;11520;51.198;4.468;2023-04-03T03:11:54;10.85;;;8.60;;
22705;SDS011;11520;51.198;4.468;2023-04-03T03:14:20;12.75;;;8.05;;
22705;SDS011;11520;51.198;4.468;2023-04-03T03:16:48;11.32;;;8.15;;
22705;SDS011;11520;51.198;4.468;2023-04-03T03:19:14;12.90;;;9.15;;
22705;SDS011;11520;51.198;4.468;2023-04-03T03:21:39;13.43;;;9.02;;
22705;SDS011;11520;51.198;4.468;2023-04-03T03:24:06;11.98;;;8.35;;
22705;SDS011;11520;51.198;4.468;2023-04-03T03:26:32;13.27;;;8.90;;
22705;SDS011;11520;51.198;4.468;2023-04-03T03:28:58;12.85;;;8.40;;
22705;SDS011;11520;51.198;4.468;2023-04-03T03:31:24;11.90;;;8.50;;
22705;SDS011;11520;51.198;4.468;2023-04-03T03:33:51;16.33;;;9.27;;
22705;SDS011;11520;51.198;4.468;2023-04-03T03:36:17;14.02;;;9.80;;
22705;SDS011;11520;51.198;4.468;2023-04-03T03:38:42;13.55;;;9.50;;
22705;SDS011;11520;51.198;4.468;2023-04-03T03:41:08;19.00;;;10.43;;
22705;SDS011;11520;51.198;4.468;2023-04-03T03:43:37;15.85;;;9.23;;
22705;SDS011;11520;51.198;4.468;2023-04-03T03:46:04;16.73;;;9.43;;
22705;SDS011;11520;51.198;4.468;2023-04-03T03:48:30;12.68;;;9.07;;
22705;SDS011;11520;51.198;4.468;2023-04-03T03:50:57;15.10;;;9.68;;
22705;SDS011;11520;51.198;4.468;2023-04-03T03:53:23;12.95;;;9.50;;
22705;SDS011;11520;51.198;4.468;2023-04-03T03:55:51;16.67;;;11.02;;
22705;SDS011;11520;51.198;4.468;2023-04-03T03:58:16;17.77;;;9.32;;
22705;SDS011;11520;51.198;4.468;2023-04-03T04:00:42;14.10;;;9.95;;
22705;SDS011;11520;51.198;4.468;2023-04-03T04:03:08;14.77;;;9.32;;
22705;SDS011;11520;51.198;4.468;2023-04-03T04:05:34;13.60;;;9.55;;
22705;SDS011;11520;51.198;4.468;2023-04-03T04:08:00;16.95;;;10.65;;
22705;SDS011;11520;51.198;4.468;2023-04-03T04:10:26;15.95;;;10.40;;
22705;SDS011;11520;51.198;4.468;2023-04-03T04:12:54;14.13;;;10.52;;
22705;SDS011;11520;51.198;4.468;2023-04-03T04:15:20;17.90;;;11.25;;
22705;SDS011;11520;51.198;4.468;2023-04-03T04:17:48;16.73;;;10.70;;
22705;SDS011;11520;51.198;4.468;2023-04-03T04:20:14;16.70;;;11.27;;
22705;SDS011;11520;51.198;4.468;2023-04-03T04:22:40;14.80;;;10.35;;
22705;SDS011;11520;51.198;4.468;2023-04-03T04:25:06;14.85;;;11.27;;
22705;SDS011;11520;51.198;4.468;2023-04-03T04:27:32;18.10;;;11.20;;
22705;SDS011;11520;51.198;4.468;2023-04-03T04:29:58;19.05;;;11.93;;
22705;SDS011;11520;51.198;4.468;2023-04-03T04:32:24;14.55;;;11.25;;
22705;SDS011;11520;51.198;4.468;2023-04-03T04:34:50;13.25;;;11.07;;
22705;SDS011;11520;51.198;4.468;2023-04-03T04:37:17;16.35;;;12.05;;
22705;SDS011;11520;51.198;4.468;2023-04-03T04:39:45;16.38;;;11.32;;
22705;SDS011;11520;51.198;4.468;2023-04-03T04:42:10;17.63;;;11.82;;
22705;SDS011;11520;51.198;4.468;2023-04-03T04:44:39;15.68;;;11.30;;
22705;SDS011;11520;51.198;4.468;2023-04-03T04:47:05;15.55;;;11.45;;
22705;SDS011;11520;51.198;4.468;2023-04-03T04:49:32;15.82;;;11.90;;
22705;SDS011;11520;51.198;4.468;2023-04-03T04:51:58;17.70;;;12.13;;
22705;SDS011;11520;51.198;4.468;2023-04-03T04:54:23;16.73;;;12.65;;
22705;SDS011;11520;51.198;4.468;2023-04-03T04:56:50;14.73;;;12.10;;
22705;SDS011;11520;51.198;4.468;2023-04-03T04:59:16;16.73;;;11.45;;
22705;SDS011;11520;51.198;4.468;2023-04-03T05:01:43;19.63;;;12.93;;
22705;SDS011;11520;51.198;4.468;2023-04-03T05:04:09;17.83;;;12.43;;
22705;SDS011;11520;51.198;4.468;2023-04-03T05:06:35;16.95;;;12.80;;
22705;SDS011;11520;51.198;4.468;2023-04-03T05:09:03;17.83;;;11.93;;
22705;SDS011;11520;51.198;4.468;2023-04-03T05:11:30;17.10;;;12.27;;
22705;SDS011;11520;51.198;4.468;2023-04-03T05:13:56;17.08;;;12.30;;
22705;SDS011;11520;51.198;4.468;2023-04-03T05:16:23;14.07;;;10.82;;
22705;SDS011;11520;51.198;4.468;2023-04-03T05:18:50;20.60;;;12.15;;
22705;SDS011;11520;51.198;4.468;2023-04-03T05:21:17;18.70;;;12.38;;
22705;SDS011;11520;51.198;4.468;2023-04-03T05:23:51;18.58;;;11.35;;
22705;SDS011;11520;51.198;4.468;2023-04-03T05:26:17;15.45;;;11.57;;
22705;SDS011;11520;51.198;4.468;2023-04-03T05:28:43;18.50;;;12.48;;
22705;SDS011;11520;51.198;4.468;2023-04-03T05:31:10;16.90;;;11.68;;
22705;SDS011;11520;51.198;4.468;2023-04-03T05:33:39;16.83;;;11.45;;
22705;SDS011;11520;51.198;4.468;2023-04-03T05:36:06;17.42;;;11.30;;
22705;SDS011;11520;51.198;4.468;2023-04-03T05:38:41;16.48;;;11.10;;
22705;SDS011;11520;51.198;4.468;2023-04-03T05:41:07;14.50;;;10.90;;
22705;SDS011;11520;51.198;4.468;2023-04-03T05:43:36;16.65;;;10.73;;
22705;SDS011;11520;51.198;4.468;2023-04-03T05:46:22;16.63;;;11.05;;
22705;SDS011;11520;51.198;4.468;2023-04-03T05:48:48;17.25;;;11.23;;
22705;SDS011;11520;51.198;4.468;2023-04-03T05:51:25;18.27;;;10.73;;
22705;SDS011;11520;51.198;4.468;2023-04-03T05:54:12;14.75;;;10.32;;
22705;SDS011;11520;51.198;4.468;2023-04-03T05:59:27;16.48;;;10.27;;
22705;SDS011;11520;51.198;4.468;2023-04-03T06:01:53;14.18;;;9.68;;
22705;SDS011;11520;51.198;4.468;2023-04-03T06:04:21;14.95;;;10.90;;
22705;SDS011;11520;51.198;4.468;2023-04-03T06:06:51;14.80;;;10.30;;
22705;SDS011;11520;51.198;4.468;2023-04-03T06:09:22;16.38;;;10.80;;
22705;SDS011;11520;51.198;4.468;2023-04-03T06:11:53;16.83;;;10.05;;
22705;SDS011;11520;51.198;4.468;2023-04-03T06:14:20;12.40;;;9.68;;
22705;SDS011;11520;51.198;4.468;2023-04-03T06:16:47;14.43;;;10.18;;
22705;SDS011;11520;51.198;4.468;2023-04-03T06:19:14;14.80;;;9.23;;
22705;SDS011;11520;51.198;4.468;2023-04-03T06:21:41;20.85;;;10.88;;
22705;SDS011;11520;51.198;4.468;2023-04-03T06:24:09;18.13;;;9.85;;
22705;SDS011;11520;51.198;4.468;2023-04-03T06:29:10;12.27;;;8.05;;
22705;SDS011;11520;51.198;4.468;2023-04-03T06:31:36;11.75;;;8.27;;
22705;SDS011;11520;51.198;4.468;2023-04-03T06:34:03;15.95;;;8.73;;
22705;SDS011;11520;51.198;4.468;2023-04-03T06:36:29;15.82;;;9.00;;
22705;SDS011;11520;51.198;4.468;2023-04-03T06:38:57;10.02;;;7.75;;
22705;SDS011;11520;51.198;4.468;2023-04-03T06:41:23;14.60;;;8.32;;
22705;SDS011;11520;51.198;4.468;2023-04-03T06:43:53;9.88;;;6.95;;
22705;SDS011;11520;51.198;4.468;2023-04-03T06:46:22;11.90;;;7.20;;
22705;SDS011;11520;51.198;4.468;2023-04-03T06:48:49;11.57;;;7.50;;
22705;SDS011;11520;51.198;4.468;2023-04-03T06:51:18;12.55;;;7.13;;
22705;SDS011;11520;51.198;4.468;2023-04-03T06:53:51;10.90;;;6.73;;
22705;SDS011;11520;51.198;4.468;2023-04-03T06:56:19;7.72;;;5.20;;
22705;SDS011;11520;51.198;4.468;2023-04-03T06:58:47;7.88;;;4.90;;
22705;SDS011;11520;51.198;4.468;2023-04-03T07:01:17;6.25;;;4.47;;
22705;SDS011;11520;51.198;4.468;2023-04-03T07:03:47;7.93;;;4.40;;
22705;SDS011;11520;51.198;4.468;2023-04-03T07:06:20;7.50;;;3.95;;
22705;SDS011;11520;51.198;4.468;2023-04-03T07:08:46;12.25;;;4.47;;
22705;SDS011;11520;51.198;4.468;2023-04-03T07:11:16;9.02;;;4.38;;
22705;SDS011;11520;51.198;4.468;2023-04-03T07:13:43;5.95;;;3.72;;
22705;SDS011;11520;51.198;4.468;2023-04-03T07:16:09;7.40;;;3.60;;
22705;SDS011;11520;51.198;4.468;2023-04-03T07:18:35;8.25;;;3.80;;
22705;SDS011;11520;51.198;4.468;2023-04-03T07:21:02;9.10;;;3.67;;
22705;SDS011;11520;51.198;4.468;2023-04-03T07:23:30;7.53;;;3.40;;
22705;SDS011;11520;51.198;4.468;2023-04-03T07:25:59;6.53;;;3.75;;
22705;SDS011;11520;51.198;4.468;2023-04-03T07:28:26;7.97;;;3.45;;
22705;SDS011;11520;51.198;4.468;2023-04-03T07:30:53;7.97;;;3.50;;
22705;SDS011;11520;51.198;4.468;2023-04-03T07:33:26;7.55;;;3.30;;
22705;SDS011;11520;51.198;4.468;2023-04-03T07:35:56;6.18;;;2.90;;
22705;SDS011;11520;51.198;4.468;2023-04-03T07:38:24;7.00;;;2.97;;
22705;SDS011;11520;51.198;4.468;2023-04-03T07:40:51;7.72;;;3.42;;
22705;SDS011;11520;51.198;4.468;2023-04-03T07:43:18;7.15;;;3.00;;
22705;SDS011;11520;51.198;4.468;2023-04-03T07:45:46;11.15;;;2.97;;
22705;SDS011;11520;51.198;4.468;2023-04-03T07:48:14;3.70;;;2.63;;
22705;SDS011;11520;51.198;4.468;2023-04-03T07:50:42;6.32;;;2.85;;
22705;SDS011;11520;51.198;4.468;2023-04-03T07:53:10;4.97;;;2.25;;
22705;SDS011;11520;51.198;4.468;2023-04-03T07:55:38;7.03;;;2.72;;
22705;SDS011;11520;51.198;4.468;2023-04-03T07:58:09;5.95;;;2.47;;
22705;SDS011;11520;51.198;4.468;2023-04-03T08:00:37;4.88;;;2.20;;
22705;SDS011;11520;51.198;4.468;2023-04-03T08:03:04;4.32;;;2.88;;
22705;SDS011;11520;51.198;4.468;2023-04-03T08:05:31;5.28;;;2.60;;
22705;SDS011;11520;51.198;4.468;2023-04-03T08:08:03;5.85;;;3.35;;
22705;SDS011;11520;51.198;4.468;2023-04-03T08:10:30;5.80;;;2.42;;
22705;SDS011;11520;51.198;4.468;2023-04-03T08:12:57;4.55;;;2.10;;
22705;SDS011;11520;51.198;4.468;2023-04-03T08:15:23;4.10;;;2.30;;
22705;SDS011;11520;51.198;4.468;2023-04-03T08:17:49;4.03;;;1.63;;
22705;SDS011;11520;51.198;4.468;2023-04-03T08:20:16;3.80;;;2.10;;
22705;SDS011;11520;51.198;4.468;2023-04-03T08:22:43;5.70;;;2.00;;
22705;SDS011;11520;51.198;4.468;2023-04-03T08:25:10;5.57;;;2.15;;
22705;SDS011;11520;51.198;4.468;2023-04-03T08:27:46;6.43;;;2.25;;
22705;SDS011;11520;51.198;4.468;2023-04-03T08:30:18;4.75;;;1.98;;
22705;SDS011;11520;51.198;4.468;2023-04-03T08:32:50;4.47;;;2.20;;
22705;SDS011;11520;51.198;4.468;2023-04-03T08:35:20;4.85;;;1.92;;
22705;SDS011;11520;51.198;4.468;2023-04-03T08:37:46;3.63;;;2.05;;
22705;SDS011;11520;51.198;4.468;2023-04-03T08:40:14;4.32;;;1.70;;
22705;SDS011;11520;51.198;4.468;2023-04-03T08:45:53;3.63;;;1.48;;
22705;SDS011;11520;51.198;4.468;2023-04-03T08:48:29;9.38;;;1.90;;
22705;SDS011;11520;51.198;4.468;2023-04-03T08:51:12;3.08;;;1.33;;
22705;SDS011;11520;51.198;4.468;2023-04-03T08:53:53;4.55;;;1.27;;
22705;SDS011;11520;51.198;4.468;2023-04-03T08:56:29;4.07;;;1.20;;
22705;SDS011;11520;51.198;4.468;2023-04-03T08:58:57;4.10;;;1.95;;
22705;SDS011;11520;51.198;4.468;2023-04-03T09:01:37;3.20;;;1.70;;
22705;SDS011;11520;51.198;4.468;2023-04-03T09:04:12;5.28;;;1.40;;
22705;SDS011;11520;51.198;4.468;2023-04-03T09:06:45;4.60;;;1.75;;
22705;SDS011;11520;51.198;4.468;2023-04-03T09:09:24;4.63;;;1.23;;
22705;SDS011;11520;51.198;4.468;2023-04-03T09:20:24;3.50;;;1.23;;
22705;SDS011;11520;51.198;4.468;2023-04-03T09:22:55;4.18;;;1.60;;
22705;SDS011;11520;51.198;4.468;2023-04-03T09:27:59;4.18;;;1.42;;
22705;SDS011;11520;51.198;4.468;2023-04-03T09:30:27;5.38;;;1.38;;
22705;SDS011;11520;51.198;4.468;2023-04-03T09:32:59;3.00;;;0.95;;
22705;SDS011;11520;51.198;4.468;2023-04-03T09:35:27;4.05;;;1.23;;
22705;SDS011;11520;51.198;4.468;2023-04-03T09:40:43;5.60;;;1.25;;
22705;SDS011;11520;51.198;4.468;2023-04-03T09:43:31;8.77;;;6.00;;
22705;SDS011;11520;51.198;4.468;2023-04-03T09:49:03;2.95;;;1.45;;
22705;SDS011;11520;51.198;4.468;2023-04-03T09:51:31;5.03;;;1.60;;
22705;SDS011;11520;51.198;4.468;2023-04-03T09:54:00;4.78;;;1.40;;
22705;SDS011;11520;51.198;4.468;2023-04-03T09:56:49;4.07;;;1.30;;
22705;SDS011;11520;51.198;4.468;2023-04-03T09:59:15;4.13;;;1.60;;
22705;SDS011;11520;51.198;4.468;2023-04-03T10:01:43;5.53;;;1.40;;
22705;SDS011;11520;51.198;4.468;2023-04-03T10:04:24;22.45;;;3.13;;
22705;SDS011;11520;51.198;4.468;2023-04-03T10:06:51;5.25;;;1.33;;
22705;SDS011;11520;51.198;4.468;2023-04-03T10:09:23;2.10;;;0.90;;
22705;SDS011;11520;51.198;4.468;2023-04-03T10:14:36;8.60;;;1.60;;
22705;SDS011;11520;51.198;4.468;2023-04-03T10:17:06;4.65;;;1.10;;
22705;SDS011;11520;51.198;4.468;2023-04-03T10:25:28;1.85;;;0.93;;
22705;SDS011;11520;51.198;4.468;2023-04-03T10:28:19;3.05;;;0.98;;
22705;SDS011;11520;51.198;4.468;2023-04-03T10:39:13;2.70;;;1.02;;
22705;SDS011;11520;51.198;4.468;2023-04-03T10:58:54;3.35;;;1.00;;
22705;SDS011;11520;51.198;4.468;2023-04-03T11:01:33;1.38;;;0.80;;
22705;SDS011;11520;51.198;4.468;2023-04-03T11:04:04;1.83;;;0.80;;
22705;SDS011;11520;51.198;4.468;2023-04-03T11:06:34;1.88;;;0.75;;
22705;SDS011;11520;51.198;4.468;2023-04-03T11:11:57;1.23;;;0.60;;
22705;SDS011;11520;51.198;4.468;2023-04-03T11:14:34;3.03;;;0.82;;
22705;SDS011;11520;51.198;4.468;2023-04-03T11:20:06;3.10;;;0.70;;
22705;SDS011;11520;51.198;4.468;2023-04-03T11:25:46;2.38;;;0.90;;
22705;SDS011;11520;51.198;4.468;2023-04-03T11:28:19;2.78;;;0.93;;
22705;SDS011;11520;51.198;4.468;2023-04-03T11:36:27;1.35;;;0.70;;
22705;SDS011;11520;51.198;4.468;2023-04-03T11:39:05;3.03;;;1.10;;
22705;SDS011;11520;51.198;4.468;2023-04-03T11:41:50;1.80;;;0.93;;
22705;SDS011;11520;51.198;4.468;2023-04-03T11:47:05;2.50;;;0.65;;
22705;SDS011;11520;51.198;4.468;2023-04-03T11:49:58;2.70;;;0.82;;
22705;SDS011;11520;51.198;4.468;2023-04-03T12:09:04;1.15;;;0.60;;
22705;SDS011;11520;51.198;4.468;2023-04-03T12:11:37;1.58;;;0.77;;
22705;SDS011;11520;51.198;4.468;2023-04-03T12:14:04;2.22;;;1.33;;
22705;SDS011;11520;51.198;4.468;2023-04-03T12:29:37;2.63;;;0.90;;
22705;SDS011;11520;51.198;4.468;2023-04-03T12:47:49;2.33;;;0.80;;
22705;SDS011;11520;51.198;4.468;2023-04-03T12:50:03;2.03;;;0.70;;
22705;SDS011;11520;51.198;4.468;2023-04-03T12:56:18;3.03;;;0.88;;
22705;SDS011;11520;51.198;4.468;2023-04-03T12:58:56;2.08;;;0.80;;
22705;SDS011;11520;51.198;4.468;2023-04-03T13:07:36;3.08;;;0.82;;
22705;SDS011;11520;51.198;4.468;2023-04-03T13:12:47;1.63;;;0.80;;
22705;SDS011;11520;51.198;4.468;2023-04-03T13:17:48;0.88;;;0.82;;
22705;SDS011;11520;51.198;4.468;2023-04-03T13:25:34;1.40;;;0.70;;
22705;SDS011;11520;51.198;4.468;2023-04-03T13:28:03;2.75;;;0.95;;
22705;SDS011;11520;51.198;4.468;2023-04-03T13:30:35;2.63;;;0.98;;
22705;SDS011;11520;51.198;4.468;2023-04-03T13:33:17;1.75;;;0.70;;
22705;SDS011;11520;51.198;4.468;2023-04-03T13:40:49;1.40;;;0.80;;
22705;SDS011;11520;51.198;4.468;2023-04-03T13:43:19;1.97;;;0.80;;
22705;SDS011;11520;51.198;4.468;2023-04-03T13:46:32;1.10;;;0.50;;
22705;SDS011;11520;51.198;4.468;2023-04-03T13:48:41;5.45;;;0.85;;
22705;SDS011;11520;51.198;4.468;2023-04-03T13:53:43;2.28;;;0.70;;
22705;SDS011;11520;51.198;4.468;2023-04-03T13:56:25;1.38;;;0.65;;
22705;SDS011;11520;51.198;4.468;2023-04-03T14:01:26;2.15;;;0.85;;
22705;SDS011;11520;51.198;4.468;2023-04-03T14:04:01;2.88;;;0.80;;
22705;SDS011;11520;51.198;4.468;2023-04-03T14:06:34;2.83;;;0.93;;
22705;SDS011;11520;51.198;4.468;2023-04-03T14:09:00;2.78;;;0.70;;
22705;SDS011;11520;51.198;4.468;2023-04-03T14:11:28;1.98;;;0.70;;
22705;SDS011;11520;51.198;4.468;2023-04-03T14:13:56;2.47;;;0.77;;
22705;SDS011;11520;51.198;4.468;2023-04-03T14:16:27;1.60;;;0.70;;
22705;SDS011;11520;51.198;4.468;2023-04-03T14:18:56;5.82;;;0.85;;
22705;SDS011;11520;51.198;4.468;2023-04-03T14:21:22;1.05;;;0.60;;
22705;SDS011;11520;51.198;4.468;2023-04-03T14:23:48;1.65;;;0.65;;
22705;SDS011;11520;51.198;4.468;2023-04-03T14:26:19;2.42;;;0.98;;
22705;SDS011;11520;51.198;4.468;2023-04-03T14:28:49;1.85;;;1.00;;
22705;SDS011;11520;51.198;4.468;2023-04-03T14:31:17;2.22;;;1.00;;
22705;SDS011;11520;51.198;4.468;2023-04-03T14:33:44;1.92;;;0.70;;
22705;SDS011;11520;51.198;4.468;2023-04-03T14:36:31;1.05;;;0.70;;
22705;SDS011;11520;51.198;4.468;2023-04-03T14:38:56;2.10;;;0.60;;
22705;SDS011;11520;51.198;4.468;2023-04-03T14:41:23;1.77;;;0.70;;
22705;SDS011;11520;51.198;4.468;2023-04-03T14:43:51;2.00;;;0.73;;
22705;SDS011;11520;51.198;4.468;2023-04-03T14:46:29;2.88;;;1.20;;
22705;SDS011;11520;51.198;4.468;2023-04-03T14:49:14;1.83;;;0.85;;
22705;SDS011;11520;51.198;4.468;2023-04-03T14:51:42;1.75;;;0.80;;
22705;SDS011;11520;51.198;4.468;2023-04-03T14:54:11;3.80;;;0.60;;
22705;SDS011;11520;51.198;4.468;2023-04-03T14:56:40;2.78;;;0.75;;
22705;SDS011;11520;51.198;4.468;2023-04-03T14:59:08;2.45;;;0.80;;
22705;SDS011;11520;51.198;4.468;2023-04-03T15:01:36;1.85;;;0.80;;
22705;SDS011;11520;51.198;4.468;2023-04-03T15:04:05;1.88;;;0.63;;
22705;SDS011;11520;51.198;4.468;2023-04-03T15:06:35;3.10;;;1.17;;
22705;SDS011;11520;51.198;4.468;2023-04-03T15:09:22;1.50;;;0.88;;
22705;SDS011;11520;51.198;4.468;2023-04-03T15:11:51;5.13;;;1.63;;
22705;SDS011;11520;51.198;4.468;2023-04-03T15:14:18;1.63;;;1.00;;
22705;SDS011;11520;51.198;4.468;2023-04-03T15:16:44;4.78;;;1.00;;
22705;SDS011;11520;51.198;4.468;2023-04-03T15:19:10;4.00;;;1.33;;
22705;SDS011;11520;51.198;4.468;2023-04-03T15:21:37;3.58;;;1.08;;
22705;SDS011;11520;51.198;4.468;2023-04-03T15:24:03;3.00;;;0.77;;
22705;SDS011;11520;51.198;4.468;2023-04-03T15:26:29;1.92;;;0.90;;
22705;SDS011;11520;51.198;4.468;2023-04-03T15:29:02;1.77;;;0.82;;
22705;SDS011;11520;51.198;4.468;2023-04-03T15:31:29;4.07;;;1.00;;
22705;SDS011;11520;51.198;4.468;2023-04-03T15:33:57;3.78;;;1.17;;
22705;SDS011;11520;51.198;4.468;2023-04-03T15:36:23;2.67;;;0.70;;
22705;SDS011;11520;51.198;4.468;2023-04-03T15:38:48;2.45;;;0.85;;
22705;SDS011;11520;51.198;4.468;2023-04-03T15:41:15;4.63;;;1.20;;
22705;SDS011;11520;51.198;4.468;2023-04-03T15:43:41;3.75;;;1.00;;
22705;SDS011;11520;51.198;4.468;2023-04-03T15:46:06;5.55;;;1.08;;
22705;SDS011;11520;51.198;4.468;2023-04-03T15:48:32;4.88;;;1.27;;
22705;SDS011;11520;51.198;4.468;2023-04-03T15:50:58;2.25;;;1.00;;
22705;SDS011;11520;51.198;4.468;2023-04-03T15:53:26;3.17;;;1.20;;
22705;SDS011;11520;51.198;4.468;2023-04-03T15:55:51;4.70;;;0.90;;
22705;SDS011;11520;51.198;4.468;2023-04-03T15:58:17;2.25;;;0.88;;
22705;SDS011;11520;51.198;4.468;2023-04-03T16:00:43;2.92;;;0.98;;
22705;SDS011;11520;51.198;4.468;2023-04-03T16:03:12;1.58;;;1.10;;
22705;SDS011;11520;51.198;4.468;2023-04-03T16:05:43;1.63;;;0.75;;
22705;SDS011;11520;51.198;4.468;2023-04-03T16:08:08;4.75;;;1.15;;
22705;SDS011;11520;51.198;4.468;2023-04-03T16:10:35;4.45;;;1.08;;
22705;SDS011;11520;51.198;4.468;2023-04-03T16:13:01;2.58;;;1.20;;
22705;SDS011;11520;51.198;4.468;2023-04-03T16:15:28;3.92;;;1.35;;
22705;SDS011;11520;51.198;4.468;2023-04-03T16:17:57;4.65;;;1.13;;
22705;SDS011;11520;51.198;4.468;2023-04-03T16:20:23;1.77;;;0.93;;
22705;SDS011;11520;51.198;4.468;2023-04-03T16:22:51;3.30;;;1.00;;
22705;SDS011;11520;51.198;4.468;2023-04-03T16:25:17;3.55;;;1.10;;
22705;SDS011;11520;51.198;4.468;2023-04-03T16:27:43;3.40;;;1.30;;
22705;SDS011;11520;51.198;4.468;2023-04-03T16:30:09;2.95;;;1.33;;
22705;SDS011;11520;51.198;4.468;2023-04-03T16:32:38;6.03;;;1.50;;
22705;SDS011;11520;51.198;4.468;2023-04-03T16:35:05;3.95;;;1.20;;
22705;SDS011;11520;51.198;4.468;2023-04-03T16:37:31;7.43;;;1.45;;
22705;SDS011;11520;51.198;4.468;2023-04-03T16:39:57;5.47;;;1.48;;
22705;SDS011;11520;51.198;4.468;2023-04-03T16:42:23;4.20;;;1.50;;
22705;SDS011;11520;51.198;4.468;2023-04-03T16:44:50;2.83;;;1.30;;
22705;SDS011;11520;51.198;4.468;2023-04-03T16:47:15;2.42;;;1.20;;
22705;SDS011;11520;51.198;4.468;2023-04-03T16:49:44;4.03;;;1.48;;
22705;SDS011;11520;51.198;4.468;2023-04-03T16:52:10;3.08;;;2.40;;
22705;SDS011;11520;51.198;4.468;2023-04-03T16:54:35;3.63;;;1.45;;
22705;SDS011;11520;51.198;4.468;2023-04-03T16:57:02;4.25;;;2.00;;
22705;SDS011;11520;51.198;4.468;2023-04-03T16:59:29;2.58;;;1.27;;
22705;SDS011;11520;51.198;4.468;2023-04-03T17:01:54;4.72;;;1.35;;
22705;SDS011;11520;51.198;4.468;2023-04-03T17:04:20;3.05;;;1.52;;
22705;SDS011;11520;51.198;4.468;2023-04-03T17:06:47;3.60;;;1.27;;
22705;SDS011;11520;51.198;4.468;2023-04-03T17:09:13;2.88;;;1.00;;
22705;SDS011;11520;51.198;4.468;2023-04-03T17:11:39;5.40;;;1.77;;
22705;SDS011;11520;51.198;4.468;2023-04-03T17:14:05;3.85;;;1.50;;
22705;SDS011;11520;51.198;4.468;2023-04-03T17:16:32;5.75;;;2.10;;
22705;SDS011;11520;51.198;4.468;2023-04-03T17:19:00;4.60;;;1.30;;
22705;SDS011;11520;51.198;4.468;2023-04-03T17:21:27;3.03;;;1.25;;
22705;SDS011;11520;51.198;4.468;2023-04-03T17:23:57;3.20;;;1.48;;
22705;SDS011;11520;51.198;4.468;2023-04-03T17:26:25;2.97;;;1.20;;
22705;SDS011;11520;51.198;4.468;2023-04-03T17:28:51;4.82;;;1.55;;
22705;SDS011;11520;51.198;4.468;2023-04-03T17:31:17;5.75;;;1.48;;